Terminal Aerodrome Forecast
Issued by NWS

Current Version | Previous Version | Text Only | Print | Product List | Glossary On
Versions: 1 2 3 4 5 6 7 8 9 10 11 12 13 14 15 16
871
FTUS43 KGRR 091403 AAA
TAFJXN
TAF AMD
KJXN 091403Z 0914/1012 30011KT 3SM -SHSN BR OVC025
      TEMPO 0914/0916 1SM -SHSN BR OVC009
     FM091700 31011G21KT 5SM -SHSN OVC012
     FM091900 31012G20KT 6SM -SHSN OVC015=

USA.gov is the U.S. government's official web portal to all federal, state and local government web resources and services.